Galloway, Texas
Current Conditions -  °F | °C
As of 2:49 AM on Sunday 23 Nov 2014 (Local Time) from KTXK Reporting Station
Broken Clouds Broken Clouds  
Wind Chill: 61°   Ceiling: 1600
Heat Index: 61°   Visibility: 10mi
Dew Point: 57°   Wind: 15mph
Humidity: 88%   Direction: 130°SE
Pressure: 29.64"   Gusts: 24mph
Location:  33.0888°N, 94.1627°W
Report Text: KTXK 230849Z AUTO 13013G21KT 10SM BKN016 BKN110 16/14 A2964 RMK AO2 RAB17E33 P0000
Loading
Personal Weather Stations






























Interactive Weather Map New forecast layout! Learn more

10-Day Weather Forecast

Advertisements
Track Severe Weather on mobile